createdAt,value
2022-12-23T07:07:54.845Z,100013.69
2022-12-23T07:12:56.909Z,100025.72
2022-12-23T07:17:58.993Z,100038.06
2022-12-23T07:23:01.131Z,100052.06
2022-12-23T07:28:03.253Z,100060.09
2022-12-23T07:33:05.357Z,100044.41
2022-12-23T07:38:07.499Z,100057.81
2022-12-23T07:43:10.168Z,100030.63
2022-12-23T07:48:12.302Z,100018.66
2022-12-23T07:53:14.408Z,100035.72
2022-12-23T07:58:16.457Z,100038.59
2022-12-23T08:03:18.679Z,100021.78
2022-12-23T08:08:20.815Z,100015.19
2022-12-23T08:13:22.928Z,100026.31
2022-12-23T08:18:26.036Z,100025.19
2022-12-23T08:23:29.856Z,100006.81
2022-12-23T08:28:32.578Z,100007.53
2022-12-23T08:33:36.690Z,100029.81
2022-12-23T08:38:38.792Z,100008.28
2022-12-23T08:43:40.972Z,100015.28
2022-12-23T08:48:48.872Z,100001.69
2022-12-23T08:53:59.822Z,100005.44
2022-12-23T08:59:04.055Z,99981.50
2022-12-23T09:04:07.386Z,99960.84
2022-12-23T09:09:12.880Z,99956.28
2022-12-23T09:14:15.019Z,99988.16
2022-12-23T09:19:17.080Z,99995.88
2022-12-23T09:24:19.123Z,100001.88
2022-12-23T09:29:21.301Z,100010.28
2022-12-23T09:34:23.393Z,100005.12
2022-12-23T09:39:25.721Z,99989.97
2022-12-23T09:44:30.574Z,99972.63
2022-12-23T09:49:34.054Z,99980.50
2022-12-23T09:54:46.205Z,99964.50
2022-12-23T10:00:26.628Z,99967.50
2022-12-23T10:05:57.936Z,99986.34
2022-12-23T10:11:04.380Z,99969.66
2022-12-23T10:16:16.896Z,99933.81
2022-12-23T10:21:33.930Z,99924.81
2022-12-23T10:26:46.810Z,99920.00
2022-12-23T10:32:17.413Z,99920.13
2022-12-23T10:37:30.089Z,99912.66
2022-12-23T10:42:43.838Z,99907.97
2022-12-23T10:47:59.764Z,99909.97
2022-12-23T10:53:06.408Z,99901.34
2022-12-23T10:58:18.229Z,99911.31
2022-12-23T11:03:24.038Z,99904.19
2022-12-23T11:08:29.260Z,99903.06
2022-12-23T11:13:37.643Z,99896.06
2022-12-23T11:18:56.370Z,99899.63
2022-12-23T11:24:18.129Z,99900.88
2022-12-23T11:29:29.304Z,99889.91
2022-12-23T11:34:37.722Z,99884.63
2022-12-23T11:39:46.521Z,99877.94
2022-12-23T11:44:51.941Z,99889.06
2022-12-23T11:49:57.181Z,99892.72
2022-12-23T11:55:05.413Z,99885.78
2022-12-23T12:00:19.082Z,99888.19
2022-12-23T12:05:24.064Z,99907.50
2022-12-23T12:10:32.815Z,99896.06
2022-12-23T12:15:51.529Z,99905.53
2022-12-23T12:21:01.198Z,99899.56
2022-12-23T12:26:08.409Z,99906.62
2022-12-23T12:31:26.048Z,99904.34
2022-12-23T12:36:46.624Z,99904.09
2022-12-23T12:42:05.039Z,99907.28
2022-12-23T12:52:59.597Z,99899.69
2022-12-23T12:58:04.747Z,99918.31
2022-12-23T13:03:49.641Z,99897.75
2022-12-23T13:08:52.050Z,99899.97
2022-12-23T13:14:18.908Z,99911.22
2022-12-23T13:19:33.358Z,99921.81
2022-12-23T13:25:10.794Z,99915.94
2022-12-23T13:30:17.834Z,99924.75
2022-12-23T13:35:41.177Z,99930.28
2022-12-23T13:41:05.854Z,99906.25
2022-12-23T13:46:24.573Z,99912.94
2022-12-23T13:51:37.745Z,99907.78
2022-12-23T13:56:49.570Z,99927.97
2022-12-23T14:01:52.672Z,99923.94
2022-12-23T14:06:58.356Z,99919.31
2022-12-23T14:12:22.219Z,99898.62
2022-12-23T14:18:04.575Z,99912.97
2022-12-23T14:23:25.629Z,99916.09
2022-12-23T14:28:33.832Z,99927.59
2022-12-23T14:33:37.786Z,99936.03
2022-12-23T14:38:40.755Z,99915.34
2022-12-23T14:43:45.773Z,99943.34
2022-12-23T14:48:47.996Z,99936.94
2022-12-23T14:53:53.697Z,99944.53
2022-12-23T14:59:14.107Z,99943.06
2022-12-23T15:04:22.082Z,99929.69
2022-12-23T15:09:31.627Z,99938.56
2022-12-23T15:14:50.849Z,99937.75
2022-12-23T15:19:53.686Z,99952.66
2022-12-23T15:24:55.817Z,99951.03
2022-12-23T15:29:58.760Z,99975.16
2022-12-23T15:35:06.198Z,99953.88
2022-12-23T15:40:34.221Z,99949.31
2022-12-23T15:45:42.069Z,99957.97
2022-12-23T15:50:44.222Z,99942.06
2022-12-23T15:55:48.898Z,99952.16
2022-12-23T16:00:59.068Z,99963.72
2022-12-23T16:06:16.936Z,99949.47
2022-12-23T16:11:21.078Z,99955.66
2022-12-23T16:16:34.170Z,99954.03
2022-12-23T16:21:37.085Z,99945.66
2022-12-23T16:26:41.859Z,99948.13
2022-12-23T16:31:51.237Z,99943.19
2022-12-23T16:36:57.943Z,99943.28
2022-12-23T16:42:00.084Z,99947.69
2022-12-23T16:47:13.339Z,99940.66
2022-12-23T16:52:15.773Z,99945.00
2022-12-23T16:57:17.869Z,99939.22
2022-12-23T17:02:25.176Z,99939.91
2022-12-23T17:07:27.626Z,99940.22
2022-12-23T17:12:29.786Z,99941.84
2022-12-23T17:17:32.439Z,99946.41
2022-12-23T17:22:36.660Z,99936.41
2022-12-23T17:27:39.586Z,99927.31
2022-12-23T17:32:41.813Z,99934.00
2022-12-23T17:37:43.944Z,99928.62
2022-12-23T17:42:47.162Z,99907.06
2022-12-23T17:47:49.449Z,99913.78
2022-12-23T17:52:52.569Z,99928.72
2022-12-23T17:57:55.750Z,99921.34
2022-12-23T18:02:57.943Z,99923.19
2022-12-23T18:08:01.525Z,99926.72
2022-12-23T18:13:07.239Z,99916.38
2022-12-23T18:18:20.475Z,99928.72
2022-12-23T18:23:30.171Z,99900.88
2022-12-23T18:28:32.368Z,99908.94
2022-12-23T18:33:34.465Z,99919.25
2022-12-23T18:38:36.600Z,99912.66
2022-12-23T18:43:38.789Z,99924.63
2022-12-23T18:48:40.932Z,99932.91
2022-12-23T18:53:43.689Z,99919.97
2022-12-23T18:58:45.922Z,99937.88
2022-12-23T19:03:48.005Z,99932.09
2022-12-23T19:08:50.079Z,99952.91
2022-12-23T19:13:52.265Z,99932.28
2022-12-23T19:18:54.335Z,99935.66
2022-12-23T19:23:57.924Z,99949.16
2022-12-23T19:29:00.355Z,99957.88
2022-12-23T19:34:02.433Z,99949.00
2022-12-23T19:39:04.483Z,99949.38
2022-12-23T19:44:06.672Z,99955.66
2022-12-23T19:49:11.628Z,99957.34
2022-12-23T19:54:17.315Z,99948.78
2022-12-23T19:59:20.451Z,99964.41
2022-12-23T20:04:24.925Z,99974.47
2022-12-23T20:09:27.097Z,99977.97
2022-12-23T20:14:33.755Z,99973.41
2022-12-23T20:19:43.768Z,99969.31
2022-12-23T20:24:47.842Z,99966.31
2022-12-23T20:29:49.936Z,99972.06
2022-12-23T20:34:52.025Z,99959.38
2022-12-23T20:39:54.265Z,99960.12
2022-12-23T20:44:56.298Z,99939.97
2022-12-23T20:49:58.420Z,99941.47
2022-12-23T20:55:01.700Z,99935.03
2022-12-23T21:00:05.673Z,99930.59
2022-12-23T21:05:08.146Z,99925.47
2022-12-23T21:10:10.499Z,99924.47
2022-12-23T21:15:12.603Z,99944.84
2022-12-23T21:20:14.900Z,99935.97
2022-12-23T21:25:17.172Z,99921.09
2022-12-23T21:30:19.429Z,99926.84
2022-12-23T21:35:21.545Z,99915.28
2022-12-23T21:40:23.683Z,99900.03
2022-12-23T21:45:25.741Z,99900.50
2022-12-23T21:50:27.820Z,99895.13
2022-12-23T21:55:29.992Z,99890.56
2022-12-23T22:00:32.162Z,99880.72
2022-12-23T22:05:34.264Z,99878.84
2022-12-23T22:10:39.251Z,99872.81
